createdAt,value
2023-01-20T00:01:31.646Z,0.10
2023-01-20T00:03:59.694Z,0.10
2023-01-20T00:06:28.693Z,0.10
2023-01-20T00:08:57.854Z,0.10
2023-01-20T00:11:28.316Z,0.10
2023-01-20T00:13:56.958Z,0.10
2023-01-20T00:16:25.626Z,0.10
2023-01-20T00:18:54.181Z,0.10
2023-01-20T00:21:22.331Z,0.10
2023-01-20T00:23:50.857Z,0.10
2023-01-20T00:26:20.040Z,0.10
2023-01-20T00:28:50.103Z,0.10
2023-01-20T00:31:20.240Z,0.10
2023-01-20T00:33:49.315Z,0.10
2023-01-20T00:36:18.598Z,0.10
2023-01-20T00:38:46.442Z,0.10
2023-01-20T00:41:14.703Z,0.10
2023-01-20T00:43:42.814Z,0.10
2023-01-20T00:46:12.484Z,0.10
2023-01-20T00:48:40.609Z,0.10
2023-01-20T00:51:09.186Z,0.10
2023-01-20T00:53:37.045Z,0.10
2023-01-20T00:56:05.221Z,0.10
2023-01-20T00:58:33.095Z,0.10
2023-01-20T01:01:01.790Z,0.10
2023-01-20T01:03:31.423Z,0.10
2023-01-20T01:06:08.316Z,0.10
2023-01-20T01:08:36.671Z,0.00
2023-01-20T01:11:05.043Z,0.10
2023-01-20T01:13:33.420Z,0.10
2023-01-20T01:16:01.667Z,0.00
2023-01-20T01:18:30.876Z,0.00
2023-01-20T01:20:58.804Z,0.00
2023-01-20T01:23:26.589Z,0.00
2023-01-20T01:25:54.410Z,0.00
2023-01-20T01:28:22.223Z,0.00
2023-01-20T01:30:50.175Z,0.00
2023-01-20T01:33:18.045Z,0.00
2023-01-20T01:35:56.021Z,0.00
2023-01-20T01:38:24.068Z,0.00
2023-01-20T01:40:53.029Z,0.00
2023-01-20T01:43:24.987Z,0.00
2023-01-20T01:45:53.072Z,0.00
2023-01-20T01:48:24.669Z,0.00
2023-01-20T01:50:57.047Z,0.00
2023-01-20T01:53:26.001Z,0.00
2023-01-20T01:55:57.979Z,0.00
2023-01-20T01:58:28.940Z,0.00
2023-01-20T02:00:57.078Z,0.00
2023-01-20T02:03:25.589Z,0.00
2023-01-20T02:05:56.091Z,0.00
2023-01-20T02:08:24.038Z,0.00
2023-01-20T02:10:51.851Z,0.00
2023-01-20T02:13:19.815Z,0.00
2023-01-20T02:15:54.605Z,0.00
2023-01-20T02:18:36.351Z,0.00
2023-01-20T02:21:28.530Z,0.00
2023-01-20T02:24:19.930Z,0.00
2023-01-20T02:26:59.618Z,-0.10
2023-01-20T02:29:56.767Z,-0.10
2023-01-20T02:32:39.519Z,-0.10
2023-01-20T02:35:12.317Z,0.00
2023-01-20T02:37:48.985Z,0.00
2023-01-20T02:40:31.389Z,-0.10
2023-01-20T02:43:08.647Z,0.00
2023-01-20T02:45:43.594Z,-0.10
2023-01-20T02:48:20.783Z,0.00
2023-01-20T02:50:57.343Z,0.00
2023-01-20T02:53:28.565Z,0.00
2023-01-20T02:55:56.755Z,0.00
2023-01-20T02:58:30.746Z,0.00
2023-01-20T03:01:03.442Z,-0.10
2023-01-20T03:03:37.475Z,-0.10
2023-01-20T03:06:09.955Z,-0.10
2023-01-20T03:08:38.796Z,-0.10
2023-01-20T03:11:08.586Z,-0.10
2023-01-20T03:13:40.193Z,-0.10
2023-01-20T03:16:11.592Z,-0.10
2023-01-20T03:18:41.145Z,-0.10
2023-01-20T03:21:11.089Z,-0.10
2023-01-20T03:23:43.256Z,-0.20
2023-01-20T03:26:13.176Z,-0.20
2023-01-20T03:28:44.566Z,-0.20
2023-01-20T03:31:16.738Z,-0.20
2023-01-20T03:33:49.365Z,-0.20
2023-01-20T03:36:19.234Z,-0.10
2023-01-20T03:38:47.793Z,-0.10
2023-01-20T03:41:27.227Z,-0.20
2023-01-20T03:44:01.810Z,-0.20
2023-01-20T03:46:34.169Z,-0.20
2023-01-20T03:49:14.600Z,-0.20
2023-01-20T03:51:51.168Z,-0.20
2023-01-20T03:54:23.289Z,-0.20
2023-01-20T03:56:56.135Z,-0.20
2023-01-20T03:59:24.682Z,-0.20
2023-01-20T04:01:55.080Z,-0.10
2023-01-20T04:04:24.418Z,-0.20
2023-01-20T04:06:53.038Z,-0.20
2023-01-20T04:09:24.344Z,-0.10
2023-01-20T04:11:52.330Z,-0.10
2023-01-20T04:14:20.153Z,-0.10
2023-01-20T04:16:53.554Z,-0.20
2023-01-20T04:19:21.382Z,-0.20
2023-01-20T04:21:54.739Z,-0.20
2023-01-20T04:24:26.763Z,-0.20
2023-01-20T04:26:54.616Z,-0.20
2023-01-20T04:29:22.405Z,-0.20
2023-01-20T04:31:50.339Z,-0.20
2023-01-20T04:34:18.137Z,-0.20
2023-01-20T04:36:45.895Z,-0.20
2023-01-20T04:39:15.064Z,-0.20
2023-01-20T04:41:42.870Z,-0.20
2023-01-20T04:44:10.677Z,-0.20
2023-01-20T04:46:38.642Z,-0.20
2023-01-20T04:49:06.554Z,-0.20
2023-01-20T04:51:34.897Z,-0.20
2023-01-20T04:54:02.869Z,-0.20
2023-01-20T04:56:32.390Z,-0.20
2023-01-20T04:59:00.193Z,-0.20
2023-01-20T05:01:28.065Z,-0.20
2023-01-20T05:03:55.873Z,-0.20
2023-01-20T05:06:23.622Z,-0.20
2023-01-20T05:08:51.390Z,-0.20
2023-01-20T05:11:19.342Z,-0.20
2023-01-20T05:13:48.507Z,-0.20
2023-01-20T05:16:21.775Z,-0.20
2023-01-20T05:18:49.543Z,-0.20
2023-01-20T05:21:17.316Z,-0.20
2023-01-20T05:23:45.139Z,-0.20
2023-01-20T05:26:12.937Z,-0.20
2023-01-20T05:28:40.822Z,-0.20
2023-01-20T05:31:10.137Z,-0.20
2023-01-20T05:33:39.723Z,-0.10
2023-01-20T05:36:08.609Z,-0.20
2023-01-20T05:38:36.543Z,-0.20
2023-01-20T05:41:05.629Z,-0.20
2023-01-20T05:43:33.831Z,-0.20
2023-01-20T05:46:01.756Z,-0.10
2023-01-20T05:48:31.081Z,-0.10
2023-01-20T05:50:58.970Z,-0.20
2023-01-20T05:53:26.860Z,-0.20
2023-01-20T05:56:00.783Z,-0.20
2023-01-20T05:58:29.329Z,-0.20
2023-01-20T06:01:04.404Z,-0.30
2023-01-20T06:03:33.657Z,-0.30
2023-01-20T06:06:01.886Z,-0.20
2023-01-20T06:08:29.707Z,-0.20
2023-01-20T06:10:57.511Z,-0.20
2023-01-20T06:13:25.427Z,-0.30
2023-01-20T06:15:53.890Z,-0.30
2023-01-20T06:18:22.268Z,-0.30
2023-01-20T06:20:51.657Z,-0.30
2023-01-20T06:23:19.737Z,-0.30
2023-01-20T06:25:47.655Z,-0.30
2023-01-20T06:28:15.448Z,-0.30
2023-01-20T06:30:43.813Z,-0.20
2023-01-20T06:33:13.225Z,-0.30
2023-01-20T06:35:40.960Z,-0.30
2023-01-20T06:38:10.068Z,-0.30
2023-01-20T06:40:37.875Z,-0.30
2023-01-20T06:43:05.623Z,-0.30
2023-01-20T06:45:33.373Z,-0.50
2023-01-20T06:48:01.106Z,-0.60
2023-01-20T06:50:28.879Z,-0.50
2023-01-20T06:52:56.727Z,-0.50
2023-01-20T06:55:25.939Z,-0.40
2023-01-20T06:57:54.843Z,-0.40
2023-01-20T07:00:24.323Z,-0.40
2023-01-20T07:02:52.155Z,-0.40
2023-01-20T07:05:19.960Z,-0.30
2023-01-20T07:07:47.770Z,-0.30
2023-01-20T07:10:15.613Z,-0.30
2023-01-20T07:12:44.837Z,-0.30
2023-01-20T07:15:13.190Z,-0.30
2023-01-20T07:17:41.119Z,-0.30
2023-01-20T07:20:10.170Z,-0.20
2023-01-20T07:22:38.026Z,-0.20
2023-01-20T07:25:06.494Z,-0.20
2023-01-20T07:27:34.306Z,-0.30
2023-01-20T07:30:03.632Z,-0.20
2023-01-20T07:32:31.809Z,-0.20
2023-01-20T07:34:59.673Z,-0.20
2023-01-20T07:37:27.433Z,-0.20
2023-01-20T07:39:55.189Z,-0.10
2023-01-20T07:42:22.989Z,-0.20
2023-01-20T07:44:50.820Z,-0.20
2023-01-20T07:47:20.076Z,-0.20
2023-01-20T07:49:47.829Z,-0.20
2023-01-20T07:52:15.634Z,-0.10
2023-01-20T07:54:43.414Z,-0.10
2023-01-20T07:57:11.216Z,-0.10
2023-01-20T07:59:38.960Z,-0.10
2023-01-20T08:02:06.967Z,-0.20
2023-01-20T08:04:36.216Z,-0.20
2023-01-20T08:07:04.092Z,-0.10
2023-01-20T08:09:31.811Z,-0.10
2023-01-20T08:11:59.559Z,-0.10
2023-01-20T08:14:27.287Z,0.00
2023-01-20T08:16:55.256Z,0.00
2023-01-20T08:19:23.024Z,0.00
2023-01-20T08:21:52.066Z,0.00
2023-01-20T08:24:19.837Z,0.00
2023-01-20T08:26:47.611Z,0.00
2023-01-20T08:29:15.354Z,0.00
2023-01-20T08:31:43.262Z,0.10
2023-01-20T08:34:12.087Z,0.00
2023-01-20T08:36:42.115Z,0.00
2023-01-20T08:39:14.625Z,0.10
2023-01-20T08:41:44.567Z,0.10
2023-01-20T08:44:12.611Z,0.10
2023-01-20T08:46:41.984Z,0.20
2023-01-20T08:49:10.774Z,0.20
2023-01-20T08:51:38.662Z,0.20
2023-01-20T08:54:06.644Z,0.30
2023-01-20T08:56:36.703Z,0.30
2023-01-20T08:59:05.178Z,0.30
2023-01-20T09:01:35.868Z,0.30
2023-01-20T09:04:06.819Z,0.30
2023-01-20T09:06:43.506Z,0.30
2023-01-20T09:09:12.346Z,0.40
2023-01-20T09:11:44.573Z,0.30
2023-01-20T09:14:12.355Z,0.20
2023-01-20T09:16:40.165Z,0.30
2023-01-20T09:19:07.947Z,0.30
2023-01-20T09:21:35.821Z,0.40
2023-01-20T09:24:03.547Z,0.40
2023-01-20T09:26:38.588Z,0.40
2023-01-20T09:29:12.058Z,0.40
2023-01-20T09:31:41.112Z,0.50
2023-01-20T09:34:09.047Z,0.40
2023-01-20T09:36:36.822Z,0.40
2023-01-20T09:39:22.726Z,0.50
2023-01-20T09:42:14.058Z,0.50
2023-01-20T09:44:53.783Z,0.50
2023-01-20T09:47:31.007Z,0.50
2023-01-20T09:50:43.726Z,0.50
2023-01-20T09:53:18.680Z,0.50
2023-01-20T09:55:52.178Z,0.50
2023-01-20T09:58:27.485Z,0.60
2023-01-20T10:01:06.053Z,0.60
2023-01-20T10:03:38.757Z,0.60
2023-01-20T10:06:11.713Z,0.60
2023-01-20T10:08:59.639Z,0.60
2023-01-20T10:11:34.491Z,0.60
2023-01-20T10:14:08.905Z,0.60
2023-01-20T10:16:45.288Z,0.60
2023-01-20T10:19:20.821Z,0.60
2023-01-20T10:21:54.136Z,0.70
2023-01-20T10:24:29.234Z,0.70
2023-01-20T10:27:02.334Z,0.60
2023-01-20T10:29:36.066Z,0.70
2023-01-20T10:32:12.100Z,0.70
2023-01-20T10:34:44.356Z,0.70
2023-01-20T10:37:12.876Z,0.70
2023-01-20T10:39:47.667Z,0.70
2023-01-20T10:42:17.012Z,0.70
2023-01-20T10:44:45.450Z,0.70
2023-01-20T10:47:28.577Z,0.70
2023-01-20T10:50:24.323Z,0.70
2023-01-20T10:53:14.721Z,0.70
2023-01-20T10:55:59.194Z,0.70
2023-01-20T10:58:29.328Z,0.70
2023-01-20T11:00:58.847Z,0.80
2023-01-20T11:03:29.839Z,0.80
2023-01-20T11:05:57.763Z,0.80
2023-01-20T11:08:29.664Z,0.80
2023-01-20T11:11:00.562Z,0.80
2023-01-20T11:13:28.723Z,0.80
2023-01-20T11:16:00.658Z,0.90
2023-01-20T11:18:31.577Z,0.90
2023-01-20T11:21:03.677Z,0.90
2023-01-20T11:23:40.174Z,0.90
2023-01-20T11:26:16.977Z,0.90
2023-01-20T11:28:49.466Z,0.90
2023-01-20T11:31:18.411Z,0.90
2023-01-20T11:33:58.900Z,1.00
2023-01-20T11:36:27.549Z,1.00
2023-01-20T11:38:57.664Z,1.00
2023-01-20T11:41:27.054Z,0.90
2023-01-20T11:43:56.541Z,1.00
2023-01-20T11:46:27.886Z,1.00
2023-01-20T11:49:16.809Z,1.00
2023-01-20T11:51:50.679Z,1.00
2023-01-20T11:54:21.118Z,1.00
2023-01-20T11:56:53.085Z,1.10
2023-01-20T11:59:25.132Z,1.10
2023-01-20T12:01:57.347Z,1.10
2023-01-20T12:04:50.634Z,1.10
2023-01-20T12:07:24.403Z,1.10
2023-01-20T12:09:56.107Z,1.00
2023-01-20T12:12:32.929Z,1.10
2023-01-20T12:15:05.865Z,1.10
2023-01-20T12:17:53.344Z,1.10
2023-01-20T12:20:28.631Z,1.20
2023-01-20T12:23:08.443Z,1.20
2023-01-20T12:25:43.179Z,1.20
2023-01-20T12:28:17.213Z,1.20
2023-01-20T12:30:52.514Z,1.20
2023-01-20T12:33:25.441Z,1.20
2023-01-20T12:36:12.499Z,1.20
2023-01-20T12:38:49.419Z,1.20
2023-01-20T12:41:24.605Z,1.20
2023-01-20T12:44:04.365Z,1.20
2023-01-20T12:46:42.056Z,1.10
2023-01-20T12:49:24.951Z,1.20
2023-01-20T12:52:07.514Z,1.10
2023-01-20T12:55:10.503Z,1.10
2023-01-20T12:57:56.333Z,1.10
2023-01-20T13:00:47.319Z,1.10
2023-01-20T13:03:40.556Z,1.00
2023-01-20T13:06:31.953Z,1.00
2023-01-20T13:09:13.578Z,1.00
2023-01-20T13:11:59.535Z,1.00
2023-01-20T13:14:33.105Z,1.00
2023-01-20T13:17:05.770Z,0.90
2023-01-20T13:19:35.440Z,1.10
2023-01-20T13:22:11.763Z,1.10
2023-01-20T13:24:45.245Z,1.20
2023-01-20T13:27:13.817Z,1.30
2023-01-20T13:29:52.573Z,1.40
2023-01-20T13:32:33.194Z,1.40
2023-01-20T13:35:02.035Z,1.50
2023-01-20T13:37:38.694Z,1.50
2023-01-20T13:40:52.059Z,1.50
2023-01-20T13:43:37.749Z,1.60
2023-01-20T13:46:53.764Z,1.70
2023-01-20T13:49:24.186Z,1.70
2023-01-20T13:51:52.033Z,1.60
2023-01-20T13:54:45.911Z,1.70
2023-01-20T13:57:40.619Z,1.70
2023-01-20T14:00:18.430Z,1.60
2023-01-20T14:02:47.874Z,1.70
2023-01-20T14:05:31.198Z,1.70
2023-01-20T14:07:59.855Z,1.60
2023-01-20T14:10:28.624Z,1.70
2023-01-20T14:12:56.410Z,1.70
2023-01-20T14:15:35.851Z,1.70
2023-01-20T14:18:04.397Z,1.70
2023-01-20T14:20:32.897Z,1.60
2023-01-20T14:23:33.322Z,1.60
2023-01-20T14:26:06.753Z,1.60
2023-01-20T14:28:36.339Z,1.60
2023-01-20T14:31:17.354Z,1.60
2023-01-20T14:33:51.646Z,1.60
2023-01-20T14:36:21.518Z,1.60
2023-01-20T14:38:58.227Z,1.60
2023-01-20T14:41:29.050Z,1.60
2023-01-20T14:43:57.453Z,1.60
2023-01-20T14:46:28.315Z,1.50
2023-01-20T14:48:57.977Z,1.50
2023-01-20T14:51:26.143Z,1.50
2023-01-20T14:54:27.618Z,1.60
2023-01-20T14:56:55.442Z,1.60
2023-01-20T14:59:23.606Z,1.50
2023-01-20T15:01:55.230Z,1.50
2023-01-20T15:04:23.824Z,1.50
2023-01-20T15:06:53.926Z,1.50
2023-01-20T15:09:30.236Z,1.50
2023-01-20T15:12:33.721Z,1.50
2023-01-20T15:15:14.777Z,1.50
2023-01-20T15:18:21.365Z,1.50
2023-01-20T15:20:52.762Z,1.40
2023-01-20T15:23:32.284Z,1.50
2023-01-20T15:26:09.418Z,1.40
2023-01-20T15:28:42.289Z,1.40
2023-01-20T15:31:14.195Z,1.50
2023-01-20T15:33:43.565Z,1.40
2023-01-20T15:36:20.954Z,1.40
2023-01-20T15:38:49.034Z,1.40
2023-01-20T15:41:16.783Z,1.30
2023-01-20T15:43:45.527Z,1.30
2023-01-20T15:46:14.515Z,1.30
2023-01-20T15:48:44.364Z,1.40
2023-01-20T15:51:15.946Z,1.40
2023-01-20T15:53:43.935Z,1.30
2023-01-20T15:56:17.432Z,1.30
2023-01-20T15:58:45.254Z,1.20
2023-01-20T16:01:16.708Z,1.30
2023-01-20T16:03:46.130Z,1.30
2023-01-20T16:06:16.604Z,1.30
2023-01-20T16:08:47.065Z,1.30
2023-01-20T16:11:14.939Z,1.30
2023-01-20T16:13:44.172Z,1.20
2023-01-20T16:16:14.283Z,1.20
2023-01-20T16:18:42.689Z,1.30
2023-01-20T16:21:13.849Z,1.30
2023-01-20T16:23:42.183Z,1.20
2023-01-20T16:26:22.153Z,1.20
2023-01-20T16:28:50.024Z,1.30
2023-01-20T16:31:18.004Z,1.20
2023-01-20T16:33:45.955Z,1.20
2023-01-20T16:36:16.922Z,1.30
2023-01-20T16:38:45.487Z,1.20
2023-01-20T16:41:16.622Z,1.20
2023-01-20T16:43:44.811Z,1.10
2023-01-20T16:46:15.177Z,1.10
2023-01-20T16:48:43.875Z,1.10
2023-01-20T16:51:15.955Z,1.10
2023-01-20T16:53:43.766Z,0.90
2023-01-20T16:56:17.360Z,0.90
2023-01-20T16:58:47.412Z,1.00
2023-01-20T17:01:15.367Z,1.00
2023-01-20T17:03:43.537Z,1.00
2023-01-20T17:06:12.671Z,1.00
2023-01-20T17:08:44.088Z,1.00
2023-01-20T17:11:11.894Z,1.00
2023-01-20T17:13:39.730Z,0.90
2023-01-20T17:16:07.969Z,1.00
2023-01-20T17:18:35.742Z,0.90
2023-01-20T17:21:05.930Z,1.00
2023-01-20T17:23:33.768Z,1.00
2023-01-20T17:26:04.113Z,0.90
2023-01-20T17:28:32.307Z,0.90
2023-01-20T17:31:02.999Z,0.90
2023-01-20T17:33:33.716Z,0.80
2023-01-20T17:36:02.960Z,0.80
2023-01-20T17:38:32.121Z,0.70
2023-01-20T17:41:02.742Z,0.90
2023-01-20T17:43:33.429Z,1.00
2023-01-20T17:46:01.300Z,0.90
2023-01-20T17:48:29.360Z,0.80
2023-01-20T17:50:59.115Z,0.80
2023-01-20T17:53:27.464Z,0.80
2023-01-20T17:56:06.547Z,0.80
2023-01-20T17:58:41.418Z,0.90
2023-01-20T18:01:13.286Z,0.80
2023-01-20T18:03:43.063Z,0.80
2023-01-20T18:06:12.405Z,0.80
2023-01-20T18:08:40.831Z,0.80
2023-01-20T18:11:11.140Z,0.80
2023-01-20T18:13:40.501Z,0.80
2023-01-20T18:16:10.955Z,0.80
2023-01-20T18:18:38.800Z,0.80
2023-01-20T18:21:10.800Z,0.80
2023-01-20T18:23:39.376Z,0.70
2023-01-20T18:26:08.601Z,0.70
2023-01-20T18:28:37.075Z,0.70
2023-01-20T18:31:08.929Z,0.70
2023-01-20T18:33:39.637Z,0.80
2023-01-20T18:36:10.087Z,0.80
2023-01-20T18:38:42.983Z,0.80
2023-01-20T18:41:11.681Z,0.70
2023-01-20T18:43:39.898Z,0.70
2023-01-20T18:46:10.039Z,0.70
2023-01-20T18:48:39.524Z,0.70
2023-01-20T18:51:10.189Z,0.80
2023-01-20T18:53:38.518Z,0.70
2023-01-20T18:56:08.715Z,0.70
2023-01-20T18:58:38.346Z,0.70
2023-01-20T19:01:09.956Z,0.80
2023-01-20T19:03:38.667Z,0.70
2023-01-20T19:06:08.316Z,0.70
2023-01-20T19:08:36.147Z,0.70
2023-01-20T19:11:05.638Z,0.70
2023-01-20T19:13:33.668Z,0.70
2023-01-20T19:16:02.027Z,0.60
2023-01-20T19:18:31.183Z,0.60
2023-01-20T19:21:04.860Z,0.60
2023-01-20T19:23:32.651Z,0.30
2023-01-20T19:26:01.275Z,0.50
2023-01-20T19:28:29.057Z,0.60
2023-01-20T19:30:57.087Z,0.40
2023-01-20T19:33:24.953Z,0.60
2023-01-20T19:35:54.041Z,0.70
2023-01-20T19:38:21.850Z,0.60
2023-01-20T19:40:49.704Z,0.60
2023-01-20T19:43:17.430Z,0.60
2023-01-20T19:45:46.221Z,0.60
2023-01-20T19:48:14.169Z,0.50
2023-01-20T19:50:42.434Z,0.60
2023-01-20T19:53:11.575Z,0.60
2023-01-20T19:55:39.369Z,0.60
2023-01-20T19:58:07.230Z,0.60
2023-01-20T20:00:35.005Z,0.50
2023-01-20T20:03:06.288Z,0.40
2023-01-20T20:05:38.147Z,0.60
2023-01-20T20:08:06.140Z,0.40
2023-01-20T20:10:35.245Z,0.40
2023-01-20T20:13:02.998Z,0.60
2023-01-20T20:15:30.773Z,0.40
2023-01-20T20:17:58.539Z,0.30
2023-01-20T20:20:26.514Z,0.40
2023-01-20T20:22:54.900Z,0.40
2023-01-20T20:25:22.655Z,0.50
2023-01-20T20:27:51.746Z,0.50
2023-01-20T20:30:19.765Z,0.40
2023-01-20T20:32:47.564Z,0.30
2023-01-20T20:35:15.449Z,0.30
2023-01-20T20:37:43.595Z,0.10
2023-01-20T20:40:12.830Z,0.30
2023-01-20T20:42:40.650Z,0.30
2023-01-20T20:45:11.357Z,0.30
2023-01-20T20:47:39.137Z,0.40
2023-01-20T20:50:07.962Z,0.20
2023-01-20T20:52:35.725Z,0.20
2023-01-20T20:55:03.487Z,0.30
2023-01-20T20:57:32.700Z,0.40
2023-01-20T21:00:00.443Z,0.30
2023-01-20T21:02:29.602Z,0.30
2023-01-20T21:04:57.422Z,0.50
2023-01-20T21:07:25.179Z,0.20
2023-01-20T21:09:52.986Z,0.30
2023-01-20T21:12:20.798Z,0.20
2023-01-20T21:14:48.589Z,0.20
2023-01-20T21:17:16.515Z,0.40
2023-01-20T21:19:46.249Z,0.30
2023-01-20T21:22:14.142Z,0.20
2023-01-20T21:24:42.025Z,0.20
2023-01-20T21:27:09.854Z,0.10
2023-01-20T21:29:38.521Z,0.20
2023-01-20T21:32:06.393Z,0.30
2023-01-20T21:34:34.265Z,0.30
2023-01-20T21:37:03.480Z,0.20
2023-01-20T21:39:31.378Z,0.30
2023-01-20T21:41:59.210Z,0.30
2023-01-20T21:44:29.723Z,0.20
2023-01-20T21:46:58.479Z,0.20
2023-01-20T21:49:44.249Z,0.30
2023-01-20T21:52:32.467Z,0.30
2023-01-20T21:55:00.509Z,0.40
2023-01-20T21:57:28.988Z,0.40
2023-01-20T21:59:57.051Z,0.40
2023-01-20T22:02:24.842Z,0.40
2023-01-20T22:04:52.609Z,0.40
2023-01-20T22:07:21.964Z,0.40
2023-01-20T22:09:50.029Z,0.30
2023-01-20T22:12:17.809Z,0.30
2023-01-20T22:14:45.685Z,0.30
2023-01-20T22:17:13.759Z,0.40
2023-01-20T22:19:41.684Z,0.30
2023-01-20T22:22:09.626Z,0.30
2023-01-20T22:24:38.828Z,0.40
2023-01-20T22:27:06.624Z,0.40
2023-01-20T22:29:34.555Z,0.40
2023-01-20T22:32:04.002Z,0.20
2023-01-20T22:34:31.956Z,0.30
2023-01-20T22:37:00.463Z,0.40
2023-01-20T22:39:28.768Z,0.40
2023-01-20T22:41:57.993Z,0.30
2023-01-20T22:44:25.820Z,0.30
2023-01-20T22:46:53.663Z,0.30
2023-01-20T22:49:21.489Z,0.30
2023-01-20T22:51:49.290Z,0.30
2023-01-20T22:54:17.053Z,0.20
2023-01-20T22:56:44.837Z,0.20
2023-01-20T23:01:49.606Z,0.40
2023-01-20T23:04:17.432Z,0.20
2023-01-20T23:06:45.239Z,0.30
2023-01-20T23:09:14.263Z,0.20
2023-01-20T23:11:42.508Z,0.30
2023-01-20T23:14:12.636Z,0.20
2023-01-20T23:16:40.868Z,0.30
2023-01-20T23:19:10.482Z,0.20
2023-01-20T23:21:38.241Z,0.30
2023-01-20T23:24:08.225Z,0.00
2023-01-20T23:26:35.979Z,0.20
2023-01-20T23:29:03.845Z,0.10
2023-01-20T23:31:33.541Z,0.30
2023-01-20T23:34:01.588Z,0.30
2023-01-20T23:36:30.713Z,0.30
2023-01-20T23:38:58.533Z,0.30
2023-01-20T23:41:26.420Z,0.30
2023-01-20T23:43:54.255Z,0.30
2023-01-20T23:46:22.031Z,0.30
2023-01-20T23:48:49.829Z,0.10
2023-01-20T23:51:17.807Z,0.20
2023-01-20T23:53:47.100Z,0.00
2023-01-20T23:56:16.990Z,-0.10
2023-01-20T23:58:45.608Z,0.10
